Point Lay Lrrs Airport Point Lay US
ICAO: PPIZ
IATA:
Category: Medium
Scheduled Services:

Elevation: 22 ft
TransAlt. 18000 ft.

Airport Communications:
AWOS 3:135.65
ANCHORAGE CNTR:119.65
CTAF:122.4
FAIRBANKS RDO:122.4
MISC:122.8
UNICOM:126.2

PPIZ Zoom In..

If you have problems with the map follow the link
https://www.worldairports.se/pages/airport.php?
ICAO=PPIZ

Runways:

(A) RW 05 length 4500 ft width 100 ft
---- / hdg 54

(B) RW 23 length 4500 ft width 100 ft
---- / hdg 234

Location; PPIZ
Day. 05 / Time. 19.34 Zulu
* Altimeter: 30.14
* Temperature: -23° c. 9.4°f.
* Wind from: 080° Speed 08 kn.
Dewpoint: -25° c.
Visibility: 10 Statute Miles.
Clouds: Scattered 2500 ft.

PPIZ 051934Z AUTO 08008KT 10SM SCT025 M23/M25 A3014 RMK AO2 FZRANO


Wind From 080°
Speed 08 kn.

 
 
jpsmedia worldairports.se 2019   terms of use